createdAt,value
2018-04-23T00:00:50.463Z,94230.05
2018-04-23T00:03:18.068Z,94219.80
2018-04-23T00:05:45.732Z,94226.38
2018-04-23T00:08:13.318Z,94223.61
2018-04-23T00:10:40.924Z,94223.69
2018-04-23T00:13:08.585Z,94223.98
2018-04-23T00:15:36.202Z,94221.86
2018-04-23T00:18:03.808Z,94221.43
2018-04-23T00:20:31.451Z,94224.44
2018-04-23T00:22:59.161Z,94218.91
2018-04-23T00:25:26.793Z,94220.14
2018-04-23T00:27:54.543Z,94223.07
2018-04-23T00:30:22.147Z,94218.22
2018-04-23T00:32:49.794Z,94219.56
2018-04-23T00:35:17.717Z,94220.70
2018-04-23T00:37:45.381Z,94226.70
2018-04-23T00:40:13.059Z,94222.91
2018-04-23T00:42:40.737Z,94221.84
2018-04-23T00:45:08.337Z,94222.23
2018-04-23T00:47:35.995Z,94222.34
2018-04-23T00:50:03.703Z,94222.34
2018-04-23T00:52:31.288Z,94227.23
2018-04-23T00:54:59.051Z,94227.05
2018-04-23T00:57:26.675Z,94230.00
2018-04-23T00:59:54.350Z,94228.80
2018-04-23T01:02:21.937Z,94232.17
2018-04-23T01:04:49.569Z,94234.21
2018-04-23T01:07:17.249Z,94232.77
2018-04-23T01:09:44.945Z,94237.77
2018-04-23T01:12:12.729Z,94232.73
2018-04-23T01:14:40.376Z,94233.91
2018-04-23T01:17:08.018Z,94235.21
2018-04-23T01:19:35.632Z,94229.30
2018-04-23T01:22:03.247Z,94234.36
2018-04-23T01:24:30.896Z,94240.82
2018-04-23T01:26:58.553Z,94239.23
2018-04-23T01:29:26.189Z,94243.32
2018-04-23T01:31:53.845Z,94236.63
2018-04-23T01:34:21.507Z,94240.44
2018-04-23T01:36:49.162Z,94240.27
2018-04-23T01:39:16.743Z,94238.95
2018-04-23T01:41:44.423Z,94238.34
2018-04-23T01:44:12.049Z,94239.97
2018-04-23T01:46:39.686Z,94237.14
2018-04-23T01:49:07.332Z,94236.57
2018-04-23T01:51:34.990Z,94245.06
2018-04-23T01:54:02.662Z,94243.19
2018-04-23T01:56:30.275Z,94243.43
2018-04-23T01:58:57.875Z,94248.05
2018-04-23T02:01:25.537Z,94248.41
2018-04-23T02:03:53.134Z,94250.67
2018-04-23T02:06:20.766Z,94253.06
2018-04-23T02:08:48.421Z,94248.91
2018-04-23T02:11:16.031Z,94251.47
2018-04-23T02:13:43.697Z,94260.84
2018-04-23T02:16:11.338Z,94257.70
2018-04-23T02:18:39.006Z,94257.00
2018-04-23T02:21:06.639Z,94260.25
2018-04-23T02:23:34.277Z,94254.29
2018-04-23T02:26:01.954Z,94250.64
2018-04-23T02:28:29.566Z,94245.98
2018-04-23T02:30:57.204Z,94247.62
2018-04-23T02:33:24.810Z,94249.20
2018-04-23T02:35:52.496Z,94244.64
2018-04-23T02:38:20.105Z,94246.05
2018-04-23T02:40:47.769Z,94246.94
2018-04-23T02:43:15.398Z,94249.53
2018-04-23T02:45:43.071Z,94246.80
2018-04-23T02:48:10.699Z,94252.38
2018-04-23T02:50:38.361Z,94251.59
2018-04-23T02:53:06.025Z,94248.14
2018-04-23T02:55:33.687Z,94248.39
2018-04-23T02:58:01.351Z,94243.07
2018-04-23T03:00:29.006Z,94244.58
2018-04-23T03:02:56.699Z,94238.20
2018-04-23T03:05:24.323Z,94235.76
2018-04-23T03:07:51.988Z,94246.49
2018-04-23T03:10:19.579Z,94243.12
2018-04-23T03:12:47.224Z,94245.66
2018-04-23T03:15:14.882Z,94239.20
2018-04-23T03:17:42.557Z,94248.58
2018-04-23T03:20:10.152Z,94239.91
2018-04-23T03:22:37.840Z,94240.92
2018-04-23T03:25:05.523Z,94239.73
2018-04-23T03:27:34.251Z,94239.23
2018-04-23T03:30:01.857Z,94239.55
2018-04-23T03:32:29.500Z,94243.14
2018-04-23T03:34:57.131Z,94246.34
2018-04-23T03:37:24.802Z,94241.30
2018-04-23T03:39:52.435Z,94243.67
2018-04-23T03:42:20.158Z,94238.06
2018-04-23T03:44:47.772Z,94245.02
2018-04-23T03:47:15.532Z,94244.27
2018-04-23T03:49:43.190Z,94253.89
2018-04-23T03:52:10.847Z,94251.55
2018-04-23T03:54:38.460Z,94255.55
2018-04-23T03:57:06.119Z,94254.87
2018-04-23T03:59:33.777Z,94251.38
2018-04-23T04:02:01.396Z,94249.45
2018-04-23T04:04:29.079Z,94257.62
2018-04-23T04:06:56.703Z,94256.77
2018-04-23T04:09:24.397Z,94260.36
2018-04-23T04:11:52.084Z,94264.80
2018-04-23T04:14:31.556Z,94258.25
2018-04-23T04:16:59.378Z,94261.73
2018-04-23T04:19:27.047Z,94266.39
2018-04-23T04:21:54.742Z,94263.72
2018-04-23T04:24:22.375Z,94274.63
2018-04-23T04:26:50.049Z,94275.64
2018-04-23T04:29:17.661Z,94285.41
2018-04-23T04:31:45.322Z,94284.91
2018-04-23T04:34:13.008Z,94281.70
2018-04-23T04:36:40.648Z,94286.33
2018-04-23T04:39:09.143Z,94283.08
2018-04-23T04:41:36.797Z,94290.55
2018-04-23T04:44:04.452Z,94291.42
2018-04-23T04:46:32.073Z,94287.03
2018-04-23T04:48:59.742Z,94295.52
2018-04-23T04:51:27.386Z,94293.38
2018-04-23T04:53:55.054Z,94297.45
2018-04-23T04:56:22.731Z,94298.29
2018-04-23T04:58:50.347Z,94289.80
2018-04-23T05:01:18.070Z,94298.08
2018-04-23T05:03:46.012Z,94299.19
2018-04-23T05:06:13.633Z,94303.81
2018-04-23T05:08:41.445Z,94306.72
2018-04-23T05:11:09.145Z,94298.19
2018-04-23T05:13:36.784Z,94297.64
2018-04-23T05:16:04.525Z,94296.98
2018-04-23T05:18:32.176Z,94297.74
2018-04-23T05:20:59.838Z,94297.03
2018-04-23T05:23:27.503Z,94302.22
2018-04-23T05:25:55.471Z,94297.88
2018-04-23T05:28:23.144Z,94305.02
2018-04-23T05:30:50.754Z,94302.54
2018-04-23T05:33:18.363Z,94309.28
2018-04-23T05:35:46.007Z,94312.91
2018-04-23T05:38:13.688Z,94306.94
2018-04-23T05:40:41.403Z,94301.23
2018-04-23T05:43:09.067Z,94305.33
2018-04-23T05:45:36.672Z,94304.06
2018-04-23T05:48:04.330Z,94300.25
2018-04-23T05:50:31.992Z,94304.34
2018-04-23T05:52:59.620Z,94294.95
2018-04-23T05:55:27.298Z,94300.34
2018-04-23T05:57:54.954Z,94297.67
2018-04-23T06:00:22.577Z,94287.30
2018-04-23T06:02:50.245Z,94290.27
2018-04-23T06:05:17.835Z,94290.75
2018-04-23T06:07:45.416Z,94293.64
2018-04-23T06:10:13.079Z,94289.97
2018-04-23T06:12:40.698Z,94288.11
2018-04-23T06:15:08.395Z,94295.22
2018-04-23T06:17:36.012Z,94295.23
2018-04-23T06:20:03.700Z,94298.05
2018-04-23T06:22:31.324Z,94298.70
2018-04-23T06:24:59.118Z,94296.11
2018-04-23T06:27:26.785Z,94300.51
2018-04-23T06:29:54.473Z,94307.02
2018-04-23T06:32:22.144Z,94308.28
2018-04-23T06:34:49.756Z,94299.03
2018-04-23T06:37:17.422Z,94297.52
2018-04-23T06:39:45.030Z,94297.73
2018-04-23T06:42:12.685Z,94299.36
2018-04-23T06:44:40.609Z,94292.43
2018-04-23T06:47:08.399Z,94286.03
2018-04-23T06:49:36.017Z,94277.91
2018-04-23T06:52:03.669Z,94275.22
2018-04-23T06:54:32.056Z,94278.08
2018-04-23T06:56:59.651Z,94273.73
2018-04-23T06:59:27.352Z,94270.86
2018-04-23T07:01:54.962Z,94269.54
2018-04-23T07:04:22.624Z,94267.08
2018-04-23T07:06:50.287Z,94274.16
2018-04-23T07:09:17.949Z,94265.70
2018-04-23T07:11:45.612Z,94265.83
2018-04-23T07:14:13.252Z,94267.44
2018-04-23T07:16:41.072Z,94265.72
2018-04-23T07:19:08.659Z,94262.28
2018-04-23T07:21:36.783Z,94262.58
2018-04-23T07:24:04.410Z,94266.09
2018-04-23T07:26:32.117Z,94264.15
2018-04-23T07:28:59.816Z,94260.34
2018-04-23T07:31:27.500Z,94256.26
2018-04-23T07:33:55.117Z,94253.34
2018-04-23T07:36:22.750Z,94250.56
2018-04-23T07:38:50.426Z,94251.52
2018-04-23T07:41:18.053Z,94249.13
2018-04-23T07:43:45.731Z,94249.52
2018-04-23T07:46:13.393Z,94243.99
2018-04-23T07:48:41.388Z,94240.13
2018-04-23T07:51:09.022Z,94245.48
2018-04-23T07:53:36.726Z,94247.80
2018-04-23T07:56:04.337Z,94241.00
2018-04-23T07:58:31.976Z,94240.18
2018-04-23T08:00:59.648Z,94243.13
2018-04-23T08:03:28.478Z,94238.41
2018-04-23T08:05:56.541Z,94243.25
2018-04-23T08:08:24.259Z,94235.62
2018-04-23T08:10:51.922Z,94236.20
2018-04-23T08:13:19.537Z,94232.60
2018-04-23T08:15:47.240Z,94234.27
2018-04-23T08:18:14.891Z,94230.73
2018-04-23T08:20:42.592Z,94231.09
2018-04-23T08:23:10.276Z,94225.33
2018-04-23T08:25:37.927Z,94227.03
2018-04-23T08:28:06.266Z,94220.66
2018-04-23T08:30:33.921Z,94225.70
2018-04-23T08:33:01.758Z,94221.17
2018-04-23T08:35:29.411Z,94220.34
2018-04-23T08:37:57.335Z,94219.55
2018-04-23T08:40:24.969Z,94217.49
2018-04-23T08:42:52.654Z,94213.67
2018-04-23T08:45:20.289Z,94216.77
2018-04-23T08:47:47.946Z,94213.63
2018-04-23T08:50:15.568Z,94212.73
2018-04-23T08:52:43.287Z,94208.75
2018-04-23T08:55:10.993Z,94209.72
2018-04-23T08:57:38.691Z,94210.93
2018-04-23T09:00:06.370Z,94206.54
2018-04-23T09:02:34.044Z,94197.95
2018-04-23T09:05:01.681Z,94204.72
2018-04-23T09:07:29.341Z,94199.00
2018-04-23T09:09:57.024Z,94201.06
2018-04-23T09:12:24.704Z,94191.63
2018-04-23T09:14:52.399Z,94190.97
2018-04-23T09:17:20.049Z,94184.86
2018-04-23T09:19:48.412Z,94181.65
2018-04-23T09:22:16.109Z,94178.22
2018-04-23T09:24:43.826Z,94178.42
2018-04-23T09:27:11.488Z,94179.14
2018-04-23T09:29:39.119Z,94176.95
2018-04-23T09:32:06.812Z,94169.72
2018-04-23T09:34:35.370Z,94169.19
2018-04-23T09:37:03.008Z,94165.70
2018-04-23T09:39:30.592Z,94165.92
2018-04-23T09:41:58.253Z,94165.59
2018-04-23T09:44:26.010Z,94164.80
2018-04-23T09:46:53.613Z,94167.01
2018-04-23T09:49:21.268Z,94154.90
2018-04-23T09:51:48.884Z,94153.95
2018-04-23T09:54:16.514Z,94151.69
2018-04-23T09:56:44.177Z,94146.02
2018-04-23T09:59:11.845Z,94141.01
2018-04-23T10:01:45.119Z,94147.97
2018-04-23T10:04:12.842Z,94142.72
2018-04-23T10:06:40.488Z,94134.59
2018-04-23T10:09:08.143Z,94132.23
2018-04-23T10:11:35.819Z,94136.48
2018-04-23T10:14:03.481Z,94123.30
2018-04-23T10:16:31.189Z,94119.91
2018-04-23T10:18:58.899Z,94118.60
2018-04-23T10:21:26.954Z,94119.77
2018-04-23T10:23:54.595Z,94116.39
2018-04-23T10:26:22.301Z,94110.20
2018-04-23T10:28:49.921Z,94109.10
2018-04-23T10:31:17.534Z,94101.36
2018-04-23T10:33:45.176Z,94104.50
2018-04-23T10:36:12.935Z,94104.88
2018-04-23T10:38:40.630Z,94097.86
2018-04-23T10:41:08.254Z,94094.38
2018-04-23T10:43:35.907Z,94096.20
2018-04-23T10:46:03.566Z,94090.19
2018-04-23T10:48:31.183Z,94092.06
2018-04-23T10:50:58.848Z,94090.00
2018-04-23T10:53:26.467Z,94083.45
2018-04-23T10:55:54.149Z,94078.44
2018-04-23T10:58:21.775Z,94085.09
2018-04-23T11:00:49.436Z,94087.82
2018-04-23T11:03:17.032Z,94082.28
2018-04-23T11:05:44.697Z,94087.20
2018-04-23T11:08:12.324Z,94082.84
2018-04-23T11:10:39.965Z,94084.63
2018-04-23T11:13:07.595Z,94078.58
2018-04-23T11:15:35.255Z,94070.32
2018-04-23T11:18:02.910Z,94077.66
2018-04-23T11:20:30.543Z,94071.82
2018-04-23T11:22:58.226Z,94070.26
2018-04-23T11:25:25.855Z,94063.83
2018-04-23T11:27:53.583Z,94067.08
2018-04-23T11:30:22.205Z,94059.20
2018-04-23T11:32:49.868Z,94057.68
2018-04-23T11:35:17.490Z,94059.05
2018-04-23T11:37:45.156Z,94053.37
2018-04-23T11:40:12.809Z,94051.87
2018-04-23T11:42:40.469Z,94045.98
2018-04-23T11:45:08.152Z,94047.48
2018-04-23T11:47:35.847Z,94039.59
2018-04-23T11:50:03.499Z,94041.16
2018-04-23T11:52:31.219Z,94042.25
2018-04-23T11:54:58.840Z,94037.50
2018-04-23T11:57:26.555Z,94034.85
2018-04-23T11:59:54.497Z,94039.44
2018-04-23T12:02:22.133Z,94037.24
2018-04-23T12:04:49.799Z,94033.98
2018-04-23T12:07:17.507Z,94038.45
2018-04-23T12:09:45.199Z,94034.64
2018-04-23T12:12:12.806Z,94035.84
2018-04-23T12:14:40.498Z,94033.18
2018-04-23T12:17:08.168Z,94031.02
2018-04-23T12:19:35.829Z,94026.70
2018-04-23T12:22:03.561Z,94015.98
2018-04-23T12:24:31.265Z,94013.38
2018-04-23T12:26:58.875Z,94009.56
2018-04-23T12:29:26.612Z,94003.04
2018-04-23T12:31:54.310Z,94000.34
2018-04-23T12:34:22.732Z,93993.27
2018-04-23T12:36:50.366Z,93993.06
2018-04-23T12:39:19.016Z,93986.58
2018-04-23T12:41:46.629Z,93981.48
2018-04-23T12:44:15.219Z,93969.48
2018-04-23T12:46:43.290Z,93970.45
2018-04-23T12:49:10.998Z,93967.84
2018-04-23T12:51:38.665Z,93962.51
2018-04-23T12:54:06.364Z,93958.91
2018-04-23T12:56:34.188Z,93958.31
2018-04-23T12:59:01.829Z,93956.73
2018-04-23T13:01:30.829Z,93951.75
2018-04-23T13:03:58.573Z,93949.59
2018-04-23T13:06:26.606Z,93946.48
2018-04-23T13:08:55.536Z,93948.58
2018-04-23T13:11:23.240Z,93948.39
2018-04-23T13:13:50.878Z,93935.96
2018-04-23T13:16:19.219Z,93939.41
2018-04-23T13:18:46.976Z,93933.94
2018-04-23T13:21:14.760Z,93928.41
2018-04-23T13:23:42.442Z,93923.59
2018-04-23T13:26:10.134Z,93916.72
2018-04-23T13:28:37.825Z,93913.34
2018-04-23T13:31:06.290Z,93914.22
2018-04-23T13:33:33.967Z,93914.84
2018-04-23T13:36:01.767Z,93907.03
2018-04-23T13:38:29.434Z,93910.05
2018-04-23T13:40:57.151Z,93917.58
2018-04-23T13:43:25.385Z,93913.01
2018-04-23T13:45:52.979Z,93912.89
2018-04-23T13:48:20.702Z,93910.77
2018-04-23T13:50:48.379Z,93914.22
2018-04-23T13:53:16.050Z,93914.97
2018-04-23T13:55:43.689Z,93917.86
2018-04-23T13:58:11.369Z,93908.05
2018-04-23T14:00:39.045Z,93907.44
2018-04-23T14:03:06.786Z,93909.31
2018-04-23T14:05:34.508Z,93898.08
2018-04-23T14:08:02.159Z,93902.48
2018-04-23T14:10:29.855Z,93899.75
2018-04-23T14:12:57.517Z,93899.50
2018-04-23T14:15:25.219Z,93896.47
2018-04-23T14:17:52.856Z,93899.09
2018-04-23T14:20:20.509Z,93901.99
2018-04-23T14:22:48.183Z,93896.89
2018-04-23T14:25:15.825Z,93889.92
2018-04-23T14:27:43.498Z,93885.38
2018-04-23T14:30:11.174Z,93890.11
2018-04-23T14:32:38.869Z,93891.34
2018-04-23T14:35:06.556Z,93885.91
2018-04-23T14:37:34.232Z,93895.59
2018-04-23T14:40:01.843Z,93886.64
2018-04-23T14:42:29.500Z,93887.20
2018-04-23T14:44:57.120Z,93887.98
2018-04-23T14:47:24.712Z,93883.27
2018-04-23T14:49:52.367Z,93876.30
2018-04-23T14:52:20.005Z,93876.17
2018-04-23T14:54:47.602Z,93874.66
2018-04-23T14:57:15.288Z,93873.49
2018-04-23T14:59:42.897Z,93873.87
2018-04-23T15:02:10.676Z,93871.88
2018-04-23T15:04:38.304Z,93870.50
2018-04-23T15:07:07.227Z,93866.75
2018-04-23T15:09:34.943Z,93862.27
2018-04-23T15:12:02.655Z,93866.66
2018-04-23T15:14:30.285Z,93870.97
2018-04-23T15:16:57.932Z,93871.04
2018-04-23T15:19:26.729Z,93864.11
2018-04-23T15:21:54.414Z,93869.11
2018-04-23T15:24:22.111Z,93864.50
2018-04-23T15:26:49.864Z,93861.62
2018-04-23T15:29:17.585Z,93866.56
2018-04-23T15:31:45.249Z,93867.61
2018-04-23T15:34:12.950Z,93865.02
2018-04-23T15:36:40.601Z,93863.52
2018-04-23T15:39:08.338Z,93867.55
2018-04-23T15:41:35.956Z,93866.77
2018-04-23T15:44:03.728Z,93869.44
2018-04-23T15:46:31.376Z,93871.98
2018-04-23T15:48:59.027Z,93873.64
2018-04-23T15:51:26.797Z,93862.10
2018-04-23T15:53:54.459Z,93854.78
2018-04-23T15:56:22.142Z,93855.01
2018-04-23T15:58:49.850Z,93858.73
2018-04-23T16:01:17.560Z,93862.01
2018-04-23T16:03:45.260Z,93862.54
2018-04-23T16:06:12.911Z,93864.44
2018-04-23T16:08:40.637Z,93869.34
2018-04-23T16:11:08.354Z,93878.09
2018-04-23T16:13:35.983Z,93872.58
2018-04-23T16:16:03.656Z,93874.92
2018-04-23T16:18:31.342Z,93872.02
2018-04-23T16:20:58.975Z,93869.12
2018-04-23T16:23:26.896Z,93866.72
2018-04-23T16:25:54.538Z,93863.57
2018-04-23T16:28:22.225Z,93858.57
2018-04-23T16:30:49.837Z,93860.30
2018-04-23T16:33:17.509Z,93860.38
2018-04-23T16:35:45.591Z,93865.97
2018-04-23T16:38:14.498Z,93867.05
2018-04-23T16:40:42.108Z,93874.63
2018-04-23T16:43:09.781Z,93874.56
2018-04-23T16:45:38.873Z,93880.94
2018-04-23T16:48:07.636Z,93882.31
2018-04-23T16:50:35.459Z,93881.19
2018-04-23T16:53:03.180Z,93879.75
2018-04-23T16:55:30.824Z,93885.88
2018-04-23T16:57:58.652Z,93882.06
2018-04-23T17:00:26.331Z,93890.72
2018-04-23T17:02:53.973Z,93889.00
2018-04-23T17:05:21.825Z,93879.45
2018-04-23T17:07:49.515Z,93887.78
2018-04-23T17:10:17.216Z,93887.70
2018-04-23T17:12:44.964Z,93888.70
2018-04-23T17:15:12.664Z,93891.94
2018-04-23T17:17:40.300Z,93899.78
2018-04-23T17:20:08.988Z,93903.71
2018-04-23T17:22:36.693Z,93911.27
2018-04-23T17:25:04.456Z,93912.34
2018-04-23T17:27:32.132Z,93913.68
2018-04-23T17:30:00.042Z,93924.02
2018-04-23T17:32:27.668Z,93927.60
2018-04-23T17:34:55.452Z,93931.04
2018-04-23T17:37:23.149Z,93938.00
2018-04-23T17:39:50.856Z,93947.76
2018-04-23T17:42:18.561Z,93950.99
2018-04-23T17:44:46.246Z,93960.66
2018-04-23T17:47:14.094Z,93964.63
2018-04-23T17:49:41.831Z,93954.36
2018-04-23T17:52:09.486Z,93962.60
2018-04-23T17:54:37.176Z,93971.13
2018-04-23T17:57:04.901Z,93970.98
2018-04-23T17:59:32.634Z,93979.58
2018-04-23T18:02:00.358Z,93996.01
2018-04-23T18:04:28.331Z,94001.35
2018-04-23T18:06:56.026Z,94010.08
2018-04-23T18:09:23.727Z,94024.84
2018-04-23T18:11:51.800Z,94036.40
2018-04-23T18:14:19.566Z,94037.61
2018-04-23T18:16:47.271Z,94045.22
2018-04-23T18:19:14.986Z,94055.13
2018-04-23T18:21:42.646Z,94061.32
2018-04-23T18:24:10.362Z,94073.48
2018-04-23T18:26:38.000Z,94073.00
2018-04-23T18:29:05.679Z,94068.02
2018-04-23T18:31:33.456Z,94074.45
2018-04-23T18:34:01.193Z,94072.45
2018-04-23T18:36:29.966Z,94081.99
2018-04-23T18:38:57.594Z,94104.11
2018-04-23T18:41:25.298Z,94103.57
2018-04-23T18:43:53.021Z,94117.61
2018-04-23T18:46:20.648Z,94112.53
2018-04-23T18:48:48.337Z,94112.39
2018-04-23T18:51:15.997Z,94123.20
2018-04-23T18:53:43.695Z,94122.57
2018-04-23T18:56:11.403Z,94120.53
2018-04-23T18:58:39.063Z,94121.36
2018-04-23T19:01:06.705Z,94119.02
2018-04-23T19:03:34.348Z,94133.50
2018-04-23T19:06:01.958Z,94140.66
2018-04-23T19:08:29.628Z,94153.27
2018-04-23T19:10:57.369Z,94155.74
2018-04-23T19:13:24.949Z,94155.05
2018-04-23T19:15:52.574Z,94157.48
2018-04-23T19:18:20.960Z,94159.28
2018-04-23T19:20:48.698Z,94165.77
2018-04-23T19:23:17.473Z,94170.55
2018-04-23T19:25:45.142Z,94173.27
2018-04-23T19:28:13.050Z,94173.44
2018-04-23T19:30:40.884Z,94178.18
2018-04-23T19:33:08.598Z,94173.72
2018-04-23T19:35:36.272Z,94176.61
2018-04-23T19:38:03.958Z,94179.78
2018-04-23T19:40:31.762Z,94184.81
2018-04-23T19:42:59.450Z,94179.68
2018-04-23T19:45:27.281Z,94181.08
2018-04-23T19:47:55.232Z,94182.83
2018-04-23T19:50:22.912Z,94192.05
2018-04-23T19:52:51.612Z,94201.39
2018-04-23T19:55:19.788Z,94214.17
2018-04-23T19:57:47.543Z,94219.71
2018-04-23T20:00:16.992Z,94229.17
2018-04-23T20:02:45.128Z,94234.17
2018-04-23T20:05:13.815Z,94242.05
2018-04-23T20:07:41.580Z,94241.51
2018-04-23T20:10:09.491Z,94245.52
2018-04-23T20:12:37.309Z,94252.80
2018-04-23T20:15:05.075Z,94257.55
2018-04-23T20:17:32.786Z,94252.45
2018-04-23T20:20:00.444Z,94264.67
2018-04-23T20:22:28.130Z,94266.12
2018-04-23T20:24:55.832Z,94267.43
2018-04-23T20:27:25.651Z,94273.88
2018-04-23T20:29:53.345Z,94278.56
2018-04-23T20:32:21.101Z,94286.72
2018-04-23T20:34:48.794Z,94296.95
2018-04-23T20:37:17.009Z,94309.25
2018-04-23T20:39:45.128Z,94321.39
2018-04-23T20:42:12.852Z,94331.95
2018-04-23T20:44:40.584Z,94325.17
2018-04-23T20:47:08.278Z,94323.24
2018-04-23T20:49:36.216Z,94347.76
2018-04-23T20:52:03.936Z,94357.02
2018-04-23T20:54:31.567Z,94371.45
2018-04-23T20:56:59.348Z,94394.06
2018-04-23T20:59:26.981Z,94397.05
2018-04-23T21:01:54.877Z,94412.48
2018-04-23T21:04:22.523Z,94416.20
2018-04-23T21:06:50.173Z,94430.22
2018-04-23T21:09:17.830Z,94440.53
2018-04-23T21:11:45.436Z,94450.27
2018-04-23T21:14:13.104Z,94454.75
2018-04-23T21:16:40.816Z,94454.38
2018-04-23T21:19:08.460Z,94459.77
2018-04-23T21:21:36.091Z,94458.69
2018-04-23T21:24:03.812Z,94466.27
2018-04-23T21:26:31.413Z,94465.88
2018-04-23T21:28:59.078Z,94471.48
2018-04-23T21:31:26.679Z,94476.33
2018-04-23T21:33:54.357Z,94483.64
2018-04-23T21:36:22.109Z,94497.78
2018-04-23T21:38:49.790Z,94498.23
2018-04-23T21:41:17.441Z,94483.73
2018-04-23T21:43:45.131Z,94491.91
2018-04-23T21:46:13.555Z,94479.34
2018-04-23T21:48:41.281Z,94486.83
2018-04-23T21:51:08.911Z,94483.69
2018-04-23T21:53:36.563Z,94486.84
2018-04-23T21:56:04.947Z,94483.59
2018-04-23T21:58:32.683Z,94485.66
2018-04-23T22:01:00.575Z,94476.27
2018-04-23T22:03:28.240Z,94478.92
2018-04-23T22:05:55.912Z,94474.97
2018-04-23T22:08:23.553Z,94476.03
2018-04-23T22:10:51.243Z,94472.83
2018-04-23T22:13:18.836Z,94474.20
2018-04-23T22:15:46.479Z,94476.70
2018-04-23T22:18:14.166Z,94474.63
2018-04-23T22:20:41.798Z,94477.05
2018-04-23T22:23:09.463Z,94487.13
2018-04-23T22:25:37.078Z,94483.37
2018-04-23T22:28:04.780Z,94492.24
2018-04-23T22:30:32.440Z,94495.95
2018-04-23T22:33:00.022Z,94488.27
2018-04-23T22:35:27.684Z,94497.53
2018-04-23T22:37:55.409Z,94494.35
2018-04-23T22:40:23.046Z,94494.91
2018-04-23T22:42:50.704Z,94495.08
2018-04-23T22:45:18.358Z,94489.91
2018-04-23T22:47:47.152Z,94492.35
2018-04-23T22:50:16.077Z,94488.16
2018-04-23T22:52:43.852Z,94485.42
2018-04-23T22:55:11.504Z,94487.86
2018-04-23T22:57:39.110Z,94484.20
2018-04-23T23:00:06.762Z,94482.81
2018-04-23T23:02:34.372Z,94487.23
2018-04-23T23:05:01.982Z,94490.57
2018-04-23T23:07:29.613Z,94485.11
2018-04-23T23:09:57.247Z,94481.10
2018-04-23T23:12:24.921Z,94477.88
2018-04-23T23:14:52.564Z,94475.02
2018-04-23T23:17:20.231Z,94473.03
2018-04-23T23:19:47.876Z,94475.70
2018-04-23T23:22:15.451Z,94466.79
2018-04-23T23:24:43.145Z,94468.63
2018-04-23T23:27:10.806Z,94466.16
2018-04-23T23:29:38.395Z,94466.85
2018-04-23T23:32:06.665Z,94462.80
2018-04-23T23:34:34.314Z,94463.62
2018-04-23T23:37:01.889Z,94468.63
2018-04-23T23:39:29.547Z,94468.47
2018-04-23T23:41:57.599Z,94466.21
2018-04-23T23:44:25.309Z,94458.63
2018-04-23T23:46:52.904Z,94453.42
2018-04-23T23:49:20.540Z,94454.78
2018-04-23T23:51:48.175Z,94453.91
2018-04-23T23:54:15.803Z,94450.16
2018-04-23T23:56:43.483Z,94450.73
2018-04-23T23:59:11.140Z,94451.42
